createdAt,value
2019-02-22T00:00:54.078Z,32.73
2019-02-22T00:03:25.424Z,30.80
2019-02-22T00:05:56.331Z,36.70
2019-02-22T00:08:27.500Z,37.20
2019-02-22T00:10:58.385Z,31.30
2019-02-22T00:13:29.279Z,32.40
2019-02-22T00:15:59.878Z,32.63
2019-02-22T00:18:30.506Z,33.57
2019-02-22T00:21:01.384Z,30.70
2019-02-22T00:23:32.244Z,35.20
2019-02-22T00:26:02.809Z,36.47
2019-02-22T00:28:33.426Z,36.80
2019-02-22T00:31:04.286Z,33.77
2019-02-22T00:33:34.907Z,34.43
2019-02-22T00:36:05.558Z,37.57
2019-02-22T00:38:36.337Z,33.13
2019-02-22T00:41:06.908Z,36.37
2019-02-22T00:43:37.518Z,34.13
2019-02-22T00:46:08.279Z,31.53
2019-02-22T00:48:38.849Z,33.40
2019-02-22T00:51:09.758Z,34.40
2019-02-22T00:53:40.361Z,41.23
2019-02-22T00:56:11.686Z,33.85
2019-02-22T00:58:42.467Z,36.40
2019-02-22T01:01:13.359Z,31.25
2019-02-22T01:03:44.262Z,31.48
2019-02-22T01:06:15.406Z,31.10
2019-02-22T01:08:46.237Z,32.30
2019-02-22T01:11:17.493Z,33.35
2019-02-22T01:13:48.046Z,32.47
2019-02-22T01:16:18.654Z,29.53
2019-02-22T01:18:49.420Z,31.60
2019-02-22T01:21:20.018Z,31.42
2019-02-22T01:23:50.609Z,28.40
2019-02-22T01:26:21.796Z,29.90
2019-02-22T01:28:52.530Z,27.70
2019-02-22T01:31:23.373Z,30.70
2019-02-22T01:33:54.287Z,40.03
2019-02-22T01:36:25.538Z,35.17
2019-02-22T01:38:56.421Z,32.53
2019-02-22T01:41:27.616Z,37.35
2019-02-22T01:43:58.574Z,27.22
2019-02-22T01:46:29.176Z,37.60
2019-02-22T01:48:59.734Z,31.40
2019-02-22T01:51:30.525Z,33.00
2019-02-22T01:54:01.055Z,33.57
2019-02-22T01:56:32.029Z,33.27
2019-02-22T01:59:02.664Z,38.17
2019-02-22T02:01:33.525Z,35.67
2019-02-22T02:04:04.610Z,29.10
2019-02-22T02:06:35.455Z,30.90
2019-02-22T02:09:06.817Z,34.73
2019-02-22T02:11:37.535Z,31.70
2019-02-22T02:14:09.843Z,32.64
2019-02-22T02:16:40.538Z,32.87
2019-02-22T02:19:11.555Z,32.05
2019-02-22T02:21:42.411Z,30.40
2019-02-22T02:24:13.612Z,33.58
2019-02-22T02:26:44.524Z,36.00
2019-02-22T02:29:15.755Z,33.08
2019-02-22T02:31:46.705Z,30.50
2019-02-22T02:34:17.858Z,27.32
2019-02-22T02:36:48.590Z,29.80
2019-02-22T02:39:19.776Z,29.65
2019-02-22T02:41:50.574Z,32.70
2019-02-22T02:44:21.833Z,27.17
2019-02-22T02:46:52.682Z,27.23
2019-02-22T02:49:23.912Z,32.73
2019-02-22T02:51:54.563Z,31.77
2019-02-22T02:54:25.750Z,26.87
2019-02-22T02:56:56.610Z,31.43
2019-02-22T02:59:27.824Z,33.63
2019-02-22T03:01:59.098Z,32.20
2019-02-22T03:04:29.649Z,31.50
2019-02-22T03:07:10.999Z,37.30
2019-02-22T03:09:41.551Z,33.47
2019-02-22T03:12:12.160Z,34.47
2019-02-22T03:14:42.780Z,31.20
2019-02-22T03:17:13.937Z,33.08
2019-02-22T03:19:44.764Z,35.63
2019-02-22T03:22:15.720Z,29.77
2019-02-22T03:24:46.587Z,36.93
2019-02-22T03:27:17.258Z,32.20
2019-02-22T03:29:47.813Z,34.73
2019-02-22T03:32:18.992Z,35.90
2019-02-22T03:34:49.822Z,31.10
2019-02-22T03:37:20.685Z,30.97
2019-02-22T03:39:51.551Z,31.70
2019-02-22T03:42:22.247Z,36.50
2019-02-22T03:44:52.835Z,38.27
2019-02-22T03:47:23.922Z,36.05
2019-02-22T03:49:54.840Z,33.07
2019-02-22T03:52:38.752Z,34.73
2019-02-22T03:55:10.209Z,34.10
2019-02-22T03:57:40.743Z,41.10
2019-02-22T04:00:12.017Z,30.77
2019-02-22T04:02:42.660Z,31.43
2019-02-22T04:05:13.935Z,36.80
2019-02-22T04:07:44.917Z,32.50
2019-02-22T04:10:15.769Z,34.83
2019-02-22T04:12:46.666Z,33.80
2019-02-22T04:15:17.877Z,33.88
2019-02-22T04:17:48.697Z,37.30
2019-02-22T04:20:19.601Z,38.23
2019-02-22T04:22:50.207Z,35.60
2019-02-22T04:25:20.834Z,35.40
2019-02-22T04:27:51.711Z,37.43
2019-02-22T04:30:22.289Z,37.53
2019-02-22T04:32:52.984Z,35.37
2019-02-22T04:35:24.126Z,38.10
2019-02-22T04:37:54.913Z,37.50
2019-02-22T04:40:25.795Z,33.88
2019-02-22T04:42:56.412Z,40.00
2019-02-22T04:45:27.272Z,39.77
2019-02-22T04:47:57.882Z,38.57
2019-02-22T04:50:29.168Z,44.53
2019-02-22T04:52:59.933Z,38.40
2019-02-22T04:55:30.503Z,37.63
2019-02-22T04:58:01.094Z,40.63
2019-02-22T05:00:32.020Z,43.23
2019-02-22T05:03:02.868Z,41.60
2019-02-22T05:05:33.817Z,47.80
2019-02-22T05:08:04.593Z,45.57
2019-02-22T05:10:35.271Z,44.07
2019-02-22T05:13:05.853Z,47.67
2019-02-22T05:15:36.590Z,52.33
2019-02-22T05:18:07.220Z,50.67
2019-02-22T05:20:38.141Z,56.37
2019-02-22T05:23:10.210Z,47.05
2019-02-22T05:25:40.929Z,47.80
2019-02-22T05:28:11.822Z,47.93
2019-02-22T05:30:42.414Z,48.37
2019-02-22T05:33:13.051Z,56.93
2019-02-22T05:35:43.775Z,47.67
2019-02-22T05:38:14.450Z,52.33
2019-02-22T05:40:45.118Z,49.97
2019-02-22T05:43:15.947Z,54.30
2019-02-22T05:45:46.876Z,50.87
2019-02-22T05:48:17.785Z,53.67
2019-02-22T05:50:48.398Z,54.53
2019-02-22T05:53:19.300Z,57.57
2019-02-22T05:55:50.122Z,55.63
2019-02-22T05:58:21.049Z,60.13
2019-02-22T06:00:55.268Z,58.40
2019-02-22T06:03:26.125Z,52.13
2019-02-22T06:05:56.958Z,54.67
2019-02-22T06:08:28.124Z,66.17
2019-02-22T06:10:59.028Z,60.60
2019-02-22T06:13:29.655Z,57.97
2019-02-22T06:16:00.250Z,55.97
2019-02-22T06:18:31.013Z,51.93
2019-02-22T06:21:01.956Z,50.07
2019-02-22T06:23:32.838Z,56.68
2019-02-22T06:26:03.458Z,57.47
2019-02-22T06:28:34.102Z,55.30
2019-02-22T06:31:05.018Z,58.90
2019-02-22T06:33:35.946Z,58.00
2019-02-22T06:36:06.564Z,71.30
2019-02-22T06:38:37.122Z,64.27
2019-02-22T06:41:07.724Z,58.10
2019-02-22T06:43:38.307Z,55.47
2019-02-22T06:46:10.555Z,61.42
2019-02-22T06:48:41.338Z,74.93
2019-02-22T06:51:12.289Z,58.00
2019-02-22T06:53:43.068Z,59.50
2019-02-22T06:56:14.224Z,57.88
2019-02-22T06:58:45.171Z,56.87
2019-02-22T07:01:16.077Z,59.67
2019-02-22T07:03:46.633Z,53.97
2019-02-22T07:06:17.484Z,61.20
2019-02-22T07:08:48.137Z,60.07
2019-02-22T07:11:26.282Z,57.70
2019-02-22T07:13:57.213Z,60.00
2019-02-22T07:16:27.813Z,50.90
2019-02-22T07:18:58.426Z,55.87
2019-02-22T07:21:43.751Z,52.53
2019-02-22T07:24:02.738Z,53.57
2019-02-22T07:26:33.394Z,58.67
2019-02-22T07:29:04.337Z,60.33
2019-02-22T07:31:35.239Z,53.37
2019-02-22T07:34:06.069Z,55.83
2019-02-22T07:36:36.724Z,52.83
2019-02-22T07:39:08.115Z,56.43
2019-02-22T07:41:39.017Z,56.90
2019-02-22T07:44:10.463Z,57.20
2019-02-22T07:46:41.301Z,48.43
2019-02-22T07:49:14.330Z,53.90
2019-02-22T07:51:45.113Z,53.07
2019-02-22T07:54:16.271Z,51.85
2019-02-22T07:56:47.125Z,48.47
2019-02-22T07:59:17.734Z,47.55
2019-02-22T08:01:48.386Z,49.73
2019-02-22T08:04:19.216Z,45.10
2019-02-22T08:06:50.144Z,46.07
2019-02-22T08:09:20.770Z,50.00
2019-02-22T08:11:51.437Z,46.37
2019-02-22T08:14:22.313Z,44.83
2019-02-22T08:16:52.978Z,49.40
2019-02-22T08:19:23.617Z,51.40
2019-02-22T08:21:54.251Z,42.37
2019-02-22T08:24:25.958Z,45.60
2019-02-22T08:26:56.970Z,43.80
2019-02-22T08:29:27.852Z,47.10
2019-02-22T08:31:58.476Z,42.63
2019-02-22T08:34:29.386Z,41.27
2019-02-22T08:37:00.207Z,43.17
2019-02-22T08:39:30.854Z,40.30
2019-02-22T08:42:01.560Z,39.33
2019-02-22T08:44:32.418Z,37.17
2019-02-22T08:47:03.028Z,38.33
2019-02-22T08:49:33.614Z,41.00
2019-02-22T08:52:04.292Z,39.43
2019-02-22T08:54:46.265Z,32.93
2019-02-22T08:57:07.565Z,34.03
2019-02-22T08:59:38.258Z,31.83
2019-02-22T09:02:10.668Z,29.70
2019-02-22T09:04:41.411Z,32.50
2019-02-22T09:07:12.248Z,28.07
2019-02-22T09:09:43.304Z,32.13
2019-02-22T09:12:14.596Z,31.82
2019-02-22T09:14:45.231Z,28.57
2019-02-22T09:17:16.190Z,26.73
2019-02-22T09:19:46.832Z,26.80
2019-02-22T09:22:22.782Z,27.43
2019-02-22T09:24:50.359Z,26.60
2019-02-22T09:27:21.056Z,27.65
2019-02-22T09:29:58.803Z,30.63
2019-02-22T09:32:24.557Z,22.60
2019-02-22T09:34:55.475Z,27.17
2019-02-22T09:37:26.439Z,27.80
2019-02-22T09:39:57.442Z,24.80
2019-02-22T09:42:28.645Z,26.30
2019-02-22T09:44:59.524Z,23.93
2019-02-22T09:47:30.457Z,22.27
2019-02-22T09:50:01.338Z,25.02
2019-02-22T09:52:31.949Z,22.67
2019-02-22T09:55:02.579Z,22.43
2019-02-22T09:57:33.343Z,20.93
2019-02-22T10:00:04.010Z,21.57
2019-02-22T10:02:34.654Z,24.87
2019-02-22T10:05:05.753Z,23.43
2019-02-22T10:07:36.620Z,20.47
2019-02-22T10:10:08.743Z,20.43
2019-02-22T10:12:39.413Z,20.23
2019-02-22T10:15:10.936Z,22.20
2019-02-22T10:17:41.533Z,18.10
2019-02-22T10:20:12.728Z,19.82
2019-02-22T10:22:43.604Z,23.83
2019-02-22T10:25:14.581Z,20.97
2019-02-22T10:27:45.508Z,19.57
2019-02-22T10:30:16.742Z,16.17
2019-02-22T10:32:50.011Z,13.33
2019-02-22T10:35:21.331Z,13.72
2019-02-22T10:37:51.933Z,13.60
2019-02-22T10:40:22.617Z,10.40
2019-02-22T10:42:53.571Z,11.50
2019-02-22T10:45:24.833Z,13.83
2019-02-22T10:47:55.696Z,12.53
2019-02-22T10:50:26.488Z,12.07
2019-02-22T10:53:02.178Z,13.83
2019-02-22T10:55:29.840Z,10.97
2019-02-22T10:58:00.557Z,12.07
2019-02-22T11:00:31.563Z,11.27
2019-02-22T11:03:02.526Z,10.40
2019-02-22T11:05:33.200Z,8.23
2019-02-22T11:08:03.824Z,8.60
2019-02-22T11:10:34.931Z,7.23
2019-02-22T11:13:05.545Z,9.03
2019-02-22T11:15:36.421Z,8.00
2019-02-22T11:18:07.250Z,6.67
2019-02-22T11:20:40.269Z,10.50
2019-02-22T11:23:10.967Z,8.50
2019-02-22T11:25:41.801Z,10.10
2019-02-22T11:28:12.632Z,8.37
2019-02-22T11:30:43.670Z,8.15
2019-02-22T11:33:14.671Z,10.13
2019-02-22T11:35:45.606Z,7.70
2019-02-22T11:38:16.543Z,7.60
2019-02-22T11:40:47.225Z,6.60
2019-02-22T11:43:17.865Z,7.53
2019-02-22T11:45:49.984Z,8.43
2019-02-22T11:48:20.920Z,7.72
2019-02-22T11:50:51.574Z,7.73
2019-02-22T11:53:22.327Z,6.12
2019-02-22T11:55:52.946Z,5.47
2019-02-22T11:58:23.735Z,6.20
2019-02-22T12:00:54.652Z,6.87
2019-02-22T12:03:25.415Z,6.45
2019-02-22T12:05:56.350Z,7.10
2019-02-22T12:08:26.939Z,7.17
2019-02-22T12:10:57.715Z,4.47
2019-02-22T12:13:31.776Z,5.17
2019-02-22T12:16:01.292Z,3.93
2019-02-22T12:18:31.943Z,3.87
2019-02-22T12:21:03.292Z,3.60
2019-02-22T12:23:33.930Z,5.97
2019-02-22T12:26:04.822Z,7.07
2019-02-22T12:28:36.387Z,5.07
2019-02-22T12:31:08.328Z,7.33
2019-02-22T12:33:39.069Z,5.40
2019-02-22T12:36:10.969Z,5.53
2019-02-22T12:38:41.793Z,8.70
2019-02-22T12:41:12.681Z,8.00
2019-02-22T12:43:43.361Z,6.60
2019-02-22T12:46:14.254Z,7.63
2019-02-22T12:48:44.919Z,6.10
2019-02-22T12:51:15.819Z,5.63
2019-02-22T12:53:48.587Z,5.77
2019-02-22T12:56:21.543Z,6.43
2019-02-22T12:58:51.798Z,5.40
2019-02-22T13:01:24.634Z,6.92
2019-02-22T13:03:55.586Z,6.03
2019-02-22T13:06:26.520Z,5.87
2019-02-22T13:08:57.224Z,5.27
2019-02-22T13:11:29.305Z,5.40
2019-02-22T13:14:00.014Z,4.47
2019-02-22T13:16:31.442Z,5.50
2019-02-22T13:19:02.174Z,4.30
2019-02-22T13:21:32.901Z,4.73
2019-02-22T13:24:04.042Z,4.00
2019-02-22T13:26:34.942Z,3.40
2019-02-22T13:29:05.839Z,3.90
2019-02-22T13:31:36.738Z,3.72
2019-02-22T13:34:07.402Z,5.10
2019-02-22T13:36:38.126Z,3.93
2019-02-22T13:39:08.984Z,5.53
2019-02-22T13:41:39.703Z,3.70
2019-02-22T13:44:11.162Z,3.77
2019-02-22T13:46:42.255Z,7.67
2019-02-22T13:49:13.131Z,4.90
2019-02-22T13:51:44.099Z,3.90
2019-02-22T13:54:14.928Z,4.43
2019-02-22T13:56:45.866Z,5.97
2019-02-22T13:59:17.120Z,3.25
2019-02-22T14:01:48.083Z,4.60
2019-02-22T14:04:18.977Z,2.95
2019-02-22T14:06:49.931Z,4.63
2019-02-22T14:09:21.131Z,4.83
2019-02-22T14:11:51.952Z,4.50
2019-02-22T14:14:23.206Z,5.85
2019-02-22T14:16:54.263Z,6.80
2019-02-22T14:19:25.051Z,3.37
2019-02-22T14:21:55.989Z,5.10
2019-02-22T14:24:27.205Z,4.53
2019-02-22T14:26:58.072Z,6.10
2019-02-22T14:29:29.282Z,4.33
2019-02-22T14:32:00.073Z,4.43
2019-02-22T14:34:31.349Z,5.97
2019-02-22T14:37:02.232Z,5.07
2019-02-22T14:39:32.952Z,4.73
2019-02-22T14:42:03.618Z,5.70
2019-02-22T14:44:34.543Z,4.53
2019-02-22T14:47:05.300Z,4.43
2019-02-22T14:49:36.196Z,4.67
2019-02-22T14:52:07.032Z,5.73
2019-02-22T14:54:38.050Z,6.93
2019-02-22T14:57:09.106Z,4.30
2019-02-22T14:59:40.031Z,5.10
2019-02-22T15:02:11.441Z,5.62
2019-02-22T15:04:42.377Z,5.00
2019-02-22T15:07:13.160Z,4.40
2019-02-22T15:09:44.078Z,4.00
2019-02-22T15:12:15.065Z,4.55
2019-02-22T15:14:46.009Z,5.50
2019-02-22T15:17:42.079Z,4.65
2019-02-22T15:20:13.364Z,6.35
2019-02-22T15:22:44.193Z,4.97
2019-02-22T15:25:15.178Z,4.65
2019-02-22T15:27:46.143Z,6.00
2019-02-22T15:30:17.598Z,5.30
2019-02-22T15:32:48.222Z,5.47
2019-02-22T15:35:23.349Z,4.60
2019-02-22T15:37:54.512Z,5.30
2019-02-22T15:40:25.293Z,4.83
2019-02-22T15:42:56.225Z,5.07
2019-02-22T15:45:27.683Z,4.72
2019-02-22T15:47:58.683Z,3.60
2019-02-22T15:50:30.075Z,4.37
2019-02-22T15:53:00.708Z,5.03
2019-02-22T15:55:31.373Z,8.33
2019-02-22T15:58:02.250Z,4.83
2019-02-22T16:00:33.468Z,3.80
2019-02-22T16:03:04.216Z,5.07
2019-02-22T16:05:37.847Z,3.77
2019-02-22T16:08:08.470Z,7.43
2019-02-22T16:10:39.380Z,5.60
2019-02-22T16:13:10.142Z,9.17
2019-02-22T16:15:41.543Z,6.27
2019-02-22T16:18:12.445Z,4.13
2019-02-22T16:20:43.316Z,5.17
2019-02-22T16:23:14.265Z,5.23
2019-02-22T16:25:45.203Z,7.60
2019-02-22T16:28:15.942Z,5.53
2019-02-22T16:30:46.711Z,5.40
2019-02-22T16:33:18.395Z,5.67
2019-02-22T16:35:49.068Z,4.43
2019-02-22T16:38:19.795Z,5.72
2019-02-22T16:40:50.659Z,5.97
2019-02-22T16:43:21.769Z,15.60
2019-02-22T16:45:52.426Z,6.60
2019-02-22T16:48:23.377Z,7.47
2019-02-22T16:50:54.223Z,5.10
2019-02-22T16:53:25.611Z,5.75
2019-02-22T16:55:56.295Z,4.83
2019-02-22T16:58:27.460Z,6.80
2019-02-22T17:00:58.545Z,9.50
2019-02-22T17:03:29.707Z,7.83
2019-02-22T17:06:00.431Z,4.97
2019-02-22T17:08:31.321Z,6.77
2019-02-22T17:11:01.988Z,8.33
2019-02-22T17:13:34.477Z,6.77
2019-02-22T17:16:05.385Z,10.67
2019-02-22T17:18:36.537Z,5.47
2019-02-22T17:21:07.275Z,7.40
2019-02-22T17:23:38.338Z,5.40
2019-02-22T17:26:13.432Z,6.10
2019-02-22T17:28:44.090Z,5.13
2019-02-22T17:31:14.760Z,5.70
2019-02-22T17:33:45.427Z,5.17
2019-02-22T17:36:26.512Z,5.53
2019-02-22T17:38:48.761Z,7.60
2019-02-22T17:41:19.489Z,6.47
2019-02-22T17:43:50.330Z,7.97
2019-02-22T17:46:21.551Z,8.13
2019-02-22T17:48:52.416Z,8.33
2019-02-22T17:51:23.751Z,7.97
2019-02-22T17:53:54.521Z,7.20
2019-02-22T17:56:25.471Z,6.47
2019-02-22T17:58:56.451Z,4.37
2019-02-22T18:01:28.087Z,7.25
2019-02-22T18:03:58.755Z,6.30
2019-02-22T18:08:59.585Z,6.30
2019-02-22T18:11:30.477Z,5.20
2019-02-22T18:14:20.469Z,7.27
2019-02-22T18:16:51.419Z,5.47
2019-02-22T18:19:22.013Z,5.05
2019-02-22T18:21:52.634Z,5.97
2019-02-22T18:24:23.900Z,6.10
2019-02-22T18:26:54.558Z,5.13
2019-02-22T18:29:34.995Z,5.28
2019-02-22T18:31:58.399Z,4.80
2019-02-22T18:34:30.554Z,6.03
2019-02-22T18:37:01.122Z,4.53
2019-02-22T18:39:31.786Z,5.67
2019-02-22T18:42:02.402Z,7.37
2019-02-22T18:44:33.294Z,6.45
2019-02-22T18:47:03.915Z,7.17
2019-02-22T18:49:34.511Z,7.53
2019-02-22T18:52:05.186Z,5.50
2019-02-22T18:54:35.880Z,7.70
2019-02-22T18:57:06.473Z,10.23
2019-02-22T18:59:37.383Z,8.23
2019-02-22T19:02:09.104Z,8.53
2019-02-22T19:04:39.746Z,10.20
2019-02-22T19:07:11.937Z,5.55
2019-02-22T19:09:42.558Z,6.17
2019-02-22T19:12:13.833Z,8.68
2019-02-22T19:14:44.486Z,6.20
2019-02-22T19:17:15.746Z,4.87
2019-02-22T19:19:46.639Z,7.90
2019-02-22T19:22:17.299Z,9.20
2019-02-22T19:24:48.053Z,10.30
2019-02-22T19:27:18.707Z,9.27
2019-02-22T19:29:49.588Z,7.87
2019-02-22T19:32:20.620Z,6.07
2019-02-22T19:34:51.586Z,5.23
2019-02-22T19:37:22.329Z,4.70
2019-02-22T19:39:52.979Z,5.10
2019-02-22T19:42:23.943Z,7.58
2019-02-22T19:44:54.708Z,5.10
2019-02-22T19:47:25.840Z,5.75
2019-02-22T19:49:56.907Z,5.63
2019-02-22T19:52:27.700Z,9.00
2019-02-22T19:54:58.614Z,6.07
2019-02-22T19:57:29.317Z,5.67
2019-02-22T20:00:01.030Z,8.03
2019-02-22T20:02:31.766Z,8.13
2019-02-22T20:05:02.558Z,7.83
2019-02-22T20:07:33.176Z,9.00
2019-02-22T20:10:03.933Z,6.00
2019-02-22T20:12:34.640Z,6.33
2019-02-22T20:15:06.135Z,5.90
2019-02-22T20:17:36.884Z,9.63
2019-02-22T20:20:10.206Z,6.20
2019-02-22T20:22:40.867Z,9.80
2019-02-22T20:25:12.298Z,4.70
2019-02-22T20:27:42.951Z,6.27
2019-02-22T20:30:15.576Z,6.57
2019-02-22T20:32:46.226Z,5.30
2019-02-22T20:35:19.724Z,5.67
2019-02-22T20:37:53.153Z,5.03
2019-02-22T20:40:22.841Z,7.43
2019-02-22T20:42:53.706Z,6.97
2019-02-22T20:45:24.534Z,5.58
2019-02-22T20:48:04.757Z,5.90
2019-02-22T20:50:28.038Z,6.83
2019-02-22T20:52:58.961Z,8.90
2019-02-22T20:55:29.798Z,4.67
2019-02-22T20:58:00.745Z,7.93
2019-02-22T21:00:31.872Z,6.27
2019-02-22T21:03:02.954Z,6.22
2019-02-22T21:05:33.893Z,7.13
2019-02-22T21:08:04.889Z,5.67
2019-02-22T21:10:54.884Z,5.70
2019-02-22T21:13:28.164Z,4.87
2019-02-22T21:15:58.724Z,7.10
2019-02-22T21:18:29.472Z,5.58
2019-02-22T21:21:01.413Z,6.23
2019-02-22T21:23:32.072Z,5.03
2019-02-22T21:26:02.789Z,5.97
2019-02-22T21:28:33.687Z,5.77
2019-02-22T21:31:04.307Z,7.87
2019-02-22T21:33:34.980Z,5.70
2019-02-22T21:36:05.836Z,6.20
2019-02-22T21:38:36.762Z,6.70
2019-02-22T21:41:07.469Z,4.93
2019-02-22T21:43:38.182Z,6.53
2019-02-22T21:46:09.008Z,6.20
2019-02-22T21:48:40.068Z,6.83
2019-02-22T21:51:10.907Z,8.03
2019-02-22T21:53:41.861Z,7.28
2019-02-22T21:56:12.809Z,6.50
2019-02-22T21:58:43.813Z,8.93
2019-02-22T22:01:14.522Z,11.40
2019-02-22T22:03:45.466Z,9.53
2019-02-22T22:06:16.138Z,7.13
2019-02-22T22:08:46.797Z,7.03
2019-02-22T22:11:18.042Z,9.65
2019-02-22T22:13:48.936Z,6.87
2019-02-22T22:16:19.861Z,5.60
2019-02-22T22:18:50.840Z,9.25
2019-02-22T22:21:21.478Z,7.83
2019-02-22T22:23:52.142Z,9.90
2019-02-22T22:26:23.060Z,10.70
2019-02-22T22:28:53.954Z,9.00
2019-02-22T22:31:24.864Z,12.95
2019-02-22T22:33:55.796Z,10.60
2019-02-22T22:36:26.374Z,11.45
2019-02-22T22:38:57.020Z,11.27
2019-02-22T22:41:28.188Z,13.93
2019-02-22T22:43:59.159Z,10.30
2019-02-22T22:46:36.775Z,8.38
2019-02-22T22:49:02.404Z,11.40
2019-02-22T22:51:33.129Z,13.90
2019-02-22T22:54:03.895Z,12.67
2019-02-22T22:56:34.870Z,12.90
2019-02-22T22:59:05.556Z,11.63
2019-02-22T23:01:37.155Z,12.83
2019-02-22T23:04:08.033Z,11.83
2019-02-22T23:06:38.949Z,9.97
2019-02-22T23:09:18.671Z,12.40
2019-02-22T23:11:49.311Z,11.60
2019-02-22T23:14:20.378Z,13.65
2019-02-22T23:16:51.096Z,11.27
2019-02-22T23:19:22.029Z,8.57
2019-02-22T23:21:52.970Z,12.57
2019-02-22T23:24:23.880Z,15.10
2019-02-22T23:26:54.500Z,11.73
2019-02-22T23:29:25.465Z,12.00
2019-02-22T23:31:56.150Z,10.70
2019-02-22T23:34:27.097Z,11.17
2019-02-22T23:36:58.002Z,15.00
2019-02-22T23:39:28.601Z,11.43
2019-02-22T23:41:59.228Z,21.03
2019-02-22T23:44:30.167Z,13.20
2019-02-22T23:47:01.019Z,11.48
2019-02-22T23:49:31.658Z,12.93
2019-02-22T23:52:02.386Z,12.40
2019-02-22T23:54:33.019Z,10.43
2019-02-22T23:57:03.962Z,11.90
2019-02-22T23:59:34.571Z,14.23
